Terminal Aerodrome Forecast
Issued by NWS Melbourne, FL

Home | Current Version | Previous Version | Text Only | Print | Product List | Glossary On
Versions: 1 2 3 4 5 6 7 8 9 10 11 12 13 14 15
715
FTUS42 KMLB 121720
TAFDAB
TAF
KDAB 121720Z 1218/1318 23013G20KT P6SM FEW035
     FM122300 25006KT P6SM FEW035 SCT250
     FM130800 28008KT P6SM FEW030 SCT250
     FM131100 32008KT P6SM FEW250
     FM131400 35014KT P6SM SKC=

USA.gov is the U.S. government's official web portal to all federal, state and local government web resources and services.